createdAt,value
2022-12-13T00:00:14.948Z,73.07
2022-12-13T00:02:41.627Z,72.16
2022-12-13T00:05:08.341Z,72.35
2022-12-13T00:07:35.223Z,72.58
2022-12-13T00:10:01.944Z,72.43
2022-12-13T00:12:28.438Z,72.27
2022-12-13T00:14:54.922Z,72.56
2022-12-13T00:17:21.418Z,72.62
2022-12-13T00:19:47.902Z,73.25
2022-12-13T00:22:14.517Z,73.39
2022-12-13T00:24:45.867Z,73.80
2022-12-13T00:27:12.570Z,73.40
2022-12-13T00:29:39.038Z,73.12
2022-12-13T00:32:05.553Z,73.16
2022-12-13T00:34:32.162Z,73.17
2022-12-13T00:36:59.242Z,73.11
2022-12-13T00:39:26.057Z,73.25
2022-12-13T00:41:52.531Z,72.96
2022-12-13T00:44:19.987Z,72.54
2022-12-13T00:46:46.740Z,71.93
2022-12-13T00:49:13.361Z,71.97
2022-12-13T00:51:39.876Z,71.87
2022-12-13T00:54:06.468Z,72.27
2022-12-13T00:56:33.268Z,71.76
2022-12-13T00:58:59.935Z,71.70
2022-12-13T01:01:27.655Z,72.05
2022-12-13T01:03:54.609Z,72.35
2022-12-13T01:06:22.279Z,72.13
2022-12-13T01:08:48.762Z,72.46
2022-12-13T01:11:15.247Z,72.54
2022-12-13T01:13:41.785Z,72.40
2022-12-13T01:16:08.974Z,72.33
2022-12-13T01:18:35.880Z,72.37
2022-12-13T01:21:02.339Z,72.59
2022-12-13T01:23:29.128Z,72.79
2022-12-13T01:25:55.897Z,73.36
2022-12-13T01:28:22.738Z,72.98
2022-12-13T01:30:59.087Z,73.10
2022-12-13T01:33:25.850Z,73.28
2022-12-13T01:35:52.575Z,72.99
2022-12-13T01:38:19.282Z,73.61
2022-12-13T01:40:46.598Z,73.25
2022-12-13T01:43:14.697Z,73.42
2022-12-13T01:45:41.639Z,72.79
2022-12-13T01:48:09.744Z,72.43
2022-12-13T01:50:37.547Z,72.21
2022-12-13T01:53:04.566Z,72.21
2022-12-13T01:55:31.501Z,72.30
2022-12-13T01:57:58.354Z,72.61
2022-12-13T02:00:25.194Z,72.53
2022-12-13T02:02:51.710Z,72.71
2022-12-13T02:05:31.973Z,72.07
2022-12-13T02:07:58.750Z,72.45
2022-12-13T02:10:25.386Z,72.32
2022-12-13T02:12:51.862Z,72.27
2022-12-13T02:15:18.879Z,72.66
2022-12-13T02:17:53.282Z,72.53
2022-12-13T02:20:25.783Z,72.50
2022-12-13T02:23:00.352Z,72.65
2022-12-13T02:25:59.441Z,72.73
2022-12-13T02:28:31.619Z,72.73
2022-12-13T02:31:18.914Z,72.73
2022-12-13T02:33:53.110Z,72.38
2022-12-13T02:36:38.935Z,72.43
2022-12-13T02:39:14.613Z,72.16
2022-12-13T02:41:51.298Z,72.31
2022-12-13T02:44:22.363Z,72.41
2022-12-13T02:46:52.664Z,71.85
2022-12-13T02:49:19.750Z,71.78
2022-12-13T02:51:46.229Z,71.51
2022-12-13T02:54:12.944Z,71.55
2022-12-13T02:56:39.417Z,71.76
2022-12-13T02:59:08.740Z,71.55
2022-12-13T03:01:53.947Z,72.44
2022-12-13T03:05:02.501Z,72.09
2022-12-13T03:07:29.746Z,71.97
2022-12-13T03:09:59.202Z,71.90
2022-12-13T03:12:53.793Z,72.04
2022-12-13T03:15:35.703Z,71.90
2022-12-13T03:18:04.279Z,71.35
2022-12-13T03:20:30.762Z,72.21
2022-12-13T03:22:57.758Z,71.73
2022-12-13T03:25:31.847Z,71.15
2022-12-13T03:28:01.222Z,71.72
2022-12-13T03:30:29.012Z,71.68
2022-12-13T03:32:55.756Z,71.36
2022-12-13T03:35:22.848Z,71.10
2022-12-13T03:37:49.568Z,71.30
2022-12-13T03:40:16.126Z,71.57
2022-12-13T03:42:42.618Z,71.66
2022-12-13T03:45:09.329Z,71.84
2022-12-13T03:47:36.593Z,71.66
2022-12-13T03:50:25.766Z,71.64
2022-12-13T03:52:51.929Z,72.14
2022-12-13T03:55:18.788Z,71.82
2022-12-13T03:57:45.300Z,71.16
2022-12-13T04:00:12.088Z,71.24
2022-12-13T04:02:42.171Z,71.70
2022-12-13T04:05:09.198Z,71.70
2022-12-13T04:07:35.686Z,71.30
2022-12-13T04:10:02.965Z,71.45
2022-12-13T04:13:08.018Z,71.74
2022-12-13T04:15:34.508Z,71.68
2022-12-13T04:18:01.072Z,72.28
2022-12-13T04:20:27.595Z,72.27
2022-12-13T04:22:54.111Z,72.06
2022-12-13T04:25:20.680Z,72.32
2022-12-13T04:27:47.232Z,72.58
2022-12-13T04:30:13.745Z,71.84
2022-12-13T04:32:40.278Z,72.01
2022-12-13T04:35:06.828Z,71.95
2022-12-13T04:37:33.388Z,72.18
2022-12-13T04:40:00.880Z,72.01
2022-12-13T04:42:27.832Z,72.04
2022-12-13T04:44:54.428Z,71.98
2022-12-13T04:47:20.927Z,71.57
2022-12-13T04:49:48.032Z,71.47
2022-12-13T04:52:22.439Z,71.56
2022-12-13T04:54:55.672Z,71.21
2022-12-13T04:57:22.675Z,71.73
2022-12-13T04:59:49.206Z,71.47
2022-12-13T05:02:23.522Z,71.50
2022-12-13T05:04:53.881Z,71.45
2022-12-13T05:07:22.932Z,71.56
2022-12-13T05:09:49.534Z,71.33
2022-12-13T05:12:22.481Z,71.19
2022-12-13T05:14:50.608Z,71.24
2022-12-13T05:17:17.103Z,71.23
2022-12-13T05:19:43.605Z,71.26
2022-12-13T05:22:19.723Z,71.32
2022-12-13T05:24:47.495Z,71.10
2022-12-13T05:27:25.409Z,71.51
2022-12-13T05:30:05.311Z,71.25
2022-12-13T05:32:44.099Z,71.17
2022-12-13T05:35:22.459Z,71.52
2022-12-13T05:37:53.806Z,71.70
2022-12-13T05:40:22.146Z,71.47
2022-12-13T05:42:48.639Z,71.57
2022-12-13T05:45:15.881Z,71.17
2022-12-13T05:47:42.645Z,71.50
2022-12-13T05:50:13.290Z,71.27
2022-12-13T05:52:39.998Z,70.91
2022-12-13T05:55:06.806Z,70.85
2022-12-13T05:57:34.198Z,70.78
2022-12-13T06:00:00.841Z,71.06
2022-12-13T06:02:28.107Z,71.39
2022-12-13T06:04:54.761Z,71.69
2022-12-13T06:07:21.236Z,71.02
2022-12-13T06:09:47.804Z,71.32
2022-12-13T06:12:31.936Z,70.88
2022-12-13T06:15:00.816Z,70.83
2022-12-13T06:17:31.960Z,70.96
2022-12-13T06:19:58.479Z,71.12
2022-12-13T06:22:25.582Z,70.94
2022-12-13T06:24:52.869Z,71.37
2022-12-13T06:27:21.155Z,71.67
2022-12-13T06:29:47.693Z,71.72
2022-12-13T06:32:14.211Z,71.33
2022-12-13T06:34:40.705Z,71.20
2022-12-13T06:37:08.103Z,71.76
2022-12-13T06:39:34.658Z,72.01
2022-12-13T06:42:02.041Z,71.67
2022-12-13T06:44:28.788Z,71.84
2022-12-13T06:47:11.740Z,71.60
2022-12-13T06:49:39.790Z,71.14
2022-12-13T06:52:06.508Z,71.08
2022-12-13T06:54:33.405Z,71.09
2022-12-13T06:56:59.893Z,70.92
2022-12-13T06:59:26.357Z,71.16
2022-12-13T07:01:52.871Z,71.32
2022-12-13T07:04:28.795Z,71.50
2022-12-13T07:07:01.295Z,71.13
2022-12-13T07:09:29.474Z,70.71
2022-12-13T07:11:55.964Z,70.68
2022-12-13T07:14:22.434Z,70.69
2022-12-13T07:16:48.918Z,70.75
2022-12-13T07:19:24.013Z,71.65
2022-12-13T07:21:51.486Z,72.23
2022-12-13T07:24:18.144Z,71.84
2022-12-13T07:26:44.607Z,71.36
2022-12-13T07:29:11.166Z,70.73
2022-12-13T07:31:37.895Z,70.93
2022-12-13T07:34:04.577Z,71.22
2022-12-13T07:36:31.079Z,71.73
2022-12-13T07:38:57.684Z,71.23
2022-12-13T07:41:24.791Z,71.10
2022-12-13T07:43:55.644Z,71.81
2022-12-13T07:46:32.071Z,71.85
2022-12-13T07:49:01.467Z,71.15
2022-12-13T07:51:28.403Z,71.03
2022-12-13T07:53:54.941Z,71.52
2022-12-13T07:56:21.414Z,70.54
2022-12-13T07:58:47.950Z,70.68
2022-12-13T08:01:14.428Z,70.51
2022-12-13T08:03:40.944Z,70.35
2022-12-13T08:06:08.741Z,70.95
2022-12-13T08:08:35.351Z,70.72
2022-12-13T08:11:05.901Z,70.11
2022-12-13T08:13:32.481Z,70.00
2022-12-13T08:16:03.024Z,70.20
2022-12-13T08:18:29.745Z,70.15
2022-12-13T08:21:00.231Z,69.92
2022-12-13T08:23:27.042Z,70.54
2022-12-13T08:25:56.750Z,70.55
2022-12-13T08:28:23.697Z,69.54
2022-12-13T08:30:50.420Z,69.29
2022-12-13T08:33:17.276Z,70.19
2022-12-13T08:35:44.019Z,69.70
2022-12-13T08:38:11.081Z,69.91
2022-12-13T08:40:37.792Z,69.61
2022-12-13T08:43:05.291Z,69.29
2022-12-13T08:45:34.219Z,69.17
2022-12-13T08:48:00.992Z,69.16
2022-12-13T08:50:27.919Z,68.36
2022-12-13T08:52:54.392Z,67.47
2022-12-13T08:55:31.981Z,68.09
2022-12-13T08:58:01.235Z,68.44
2022-12-13T09:00:28.063Z,67.89
2022-12-13T09:02:57.407Z,67.90
2022-12-13T09:05:33.080Z,67.21
2022-12-13T09:08:02.999Z,67.27
2022-12-13T09:10:30.070Z,66.55
2022-12-13T09:13:11.866Z,67.27
2022-12-13T09:15:51.714Z,65.75
2022-12-13T09:18:24.370Z,66.06
2022-12-13T09:20:52.652Z,66.37
2022-12-13T09:23:23.688Z,65.98
2022-12-13T09:26:05.211Z,65.67
2022-12-13T09:28:32.947Z,64.96
2022-12-13T09:30:59.909Z,66.18
2022-12-13T09:33:30.046Z,66.53
2022-12-13T09:35:57.575Z,64.87
2022-12-13T09:38:24.161Z,65.17
2022-12-13T09:40:58.441Z,64.92
2022-12-13T09:43:32.144Z,64.33
2022-12-13T09:46:01.061Z,64.61
2022-12-13T09:48:28.381Z,64.25
2022-12-13T09:51:17.203Z,64.51
2022-12-13T09:53:46.907Z,64.66
2022-12-13T09:56:13.455Z,63.50
2022-12-13T09:58:39.972Z,63.48
2022-12-13T10:01:06.626Z,63.30
2022-12-13T10:03:33.190Z,62.98
2022-12-13T10:06:00.315Z,63.68
2022-12-13T10:08:35.930Z,62.12
2022-12-13T10:11:02.422Z,62.82
2022-12-13T10:13:42.472Z,63.82
2022-12-13T10:16:23.317Z,63.72
2022-12-13T10:18:50.766Z,63.18
2022-12-13T10:21:35.810Z,62.81
2022-12-13T10:24:25.247Z,63.40
2022-12-13T10:26:52.033Z,62.86
2022-12-13T10:29:18.655Z,62.40
2022-12-13T10:31:45.851Z,62.86
2022-12-13T10:34:30.788Z,62.70
2022-12-13T10:36:59.635Z,62.51
2022-12-13T10:39:40.071Z,63.21
2022-12-13T10:42:12.095Z,62.94
2022-12-13T10:44:38.602Z,64.47
2022-12-13T10:47:10.976Z,63.76
2022-12-13T10:49:52.110Z,62.40
2022-12-13T10:52:31.143Z,62.15
2022-12-13T10:55:01.269Z,63.03
2022-12-13T10:57:28.030Z,63.65
2022-12-13T10:59:54.510Z,63.50
2022-12-13T11:02:27.179Z,62.92
2022-12-13T11:04:53.780Z,62.13
2022-12-13T11:07:31.064Z,62.35
2022-12-13T11:10:05.481Z,61.68
2022-12-13T11:12:32.611Z,61.83
2022-12-13T11:14:59.029Z,62.54
2022-12-13T11:17:26.729Z,62.14
2022-12-13T11:19:54.110Z,61.38
2022-12-13T11:22:38.442Z,62.07
2022-12-13T11:25:08.917Z,62.52
2022-12-13T11:27:51.326Z,61.34
2022-12-13T11:30:27.354Z,61.87
2022-12-13T11:33:20.319Z,61.34
2022-12-13T11:35:55.098Z,61.11
2022-12-13T11:38:22.557Z,61.88
2022-12-13T11:40:49.849Z,61.66
2022-12-13T11:43:22.947Z,61.91
2022-12-13T11:45:52.574Z,61.74
2022-12-13T11:48:24.465Z,62.26
2022-12-13T11:50:51.841Z,62.21
2022-12-13T11:53:31.770Z,61.51
2022-12-13T11:56:11.023Z,60.62
2022-12-13T11:59:02.319Z,61.37
2022-12-13T12:01:38.260Z,60.51
2022-12-13T12:04:19.649Z,61.07
2022-12-13T12:06:54.427Z,61.54
2022-12-13T12:09:21.068Z,62.14
2022-12-13T12:11:56.626Z,62.72
2022-12-13T12:14:24.841Z,62.25
2022-12-13T12:16:55.202Z,61.83
2022-12-13T12:19:26.060Z,62.41
2022-12-13T12:24:44.430Z,61.02
2022-12-13T12:27:13.875Z,60.63
2022-12-13T12:29:55.829Z,60.69
2022-12-13T12:32:41.485Z,61.18
2022-12-13T12:35:29.977Z,60.52
2022-12-13T12:38:20.586Z,59.50
2022-12-13T12:41:17.939Z,59.52
2022-12-13T12:43:44.740Z,59.19
2022-12-13T12:46:30.083Z,59.43
2022-12-13T12:49:16.885Z,59.37
2022-12-13T12:51:52.514Z,59.91
2022-12-13T12:54:21.794Z,60.51
2022-12-13T12:56:50.834Z,60.30
2022-12-13T12:59:17.362Z,60.25
2022-12-13T13:01:47.296Z,59.33
2022-12-13T13:04:14.263Z,59.05
2022-12-13T13:07:23.032Z,59.49
2022-12-13T13:09:50.208Z,59.19
2022-12-13T13:12:29.107Z,59.17
2022-12-13T13:14:57.156Z,58.73
2022-12-13T13:17:23.970Z,59.40
2022-12-13T13:20:01.394Z,58.78
2022-12-13T13:22:43.434Z,58.71
2022-12-13T13:25:21.921Z,59.02
2022-12-13T13:27:48.958Z,57.94
2022-12-13T13:30:15.711Z,57.42
2022-12-13T13:32:42.511Z,57.47
2022-12-13T13:35:30.750Z,57.36
2022-12-13T13:37:58.186Z,58.67
2022-12-13T13:40:32.139Z,58.87
2022-12-13T13:43:03.111Z,57.36
2022-12-13T13:45:29.588Z,57.25
2022-12-13T13:48:22.162Z,57.17
2022-12-13T13:50:51.470Z,57.82
2022-12-13T13:53:20.855Z,57.39
2022-12-13T13:55:49.725Z,57.93
2022-12-13T13:58:35.580Z,57.83
2022-12-13T14:01:21.030Z,57.12
2022-12-13T14:04:05.706Z,57.80
2022-12-13T14:06:51.240Z,57.98
2022-12-13T14:09:38.710Z,56.54
2022-12-13T14:12:24.964Z,58.62
2022-12-13T14:15:10.830Z,57.59
2022-12-13T14:17:58.857Z,57.69
2022-12-13T14:20:42.817Z,56.72
2022-12-13T14:23:09.503Z,58.52
2022-12-13T14:25:47.843Z,57.07
2022-12-13T14:28:36.497Z,58.32
2022-12-13T14:31:03.271Z,57.73
2022-12-13T14:33:30.094Z,57.56
2022-12-13T14:35:57.811Z,57.04
2022-12-13T14:38:25.616Z,56.24
2022-12-13T14:40:56.567Z,58.96
2022-12-13T14:43:27.297Z,58.87
2022-12-13T14:46:00.445Z,57.69
2022-12-13T14:48:27.896Z,58.07
2022-12-13T14:50:55.538Z,56.74
2022-12-13T14:53:24.307Z,58.08
2022-12-13T14:56:04.575Z,56.92
2022-12-13T14:58:31.365Z,56.92
2022-12-13T15:00:58.057Z,57.18
2022-12-13T15:03:26.037Z,58.26
2022-12-13T15:05:53.821Z,57.05
2022-12-13T15:08:20.335Z,57.38
2022-12-13T15:10:48.981Z,56.54
2022-12-13T15:13:23.767Z,56.46
2022-12-13T15:15:54.522Z,57.65
2022-12-13T15:18:23.809Z,57.58
2022-12-13T15:20:53.341Z,57.63
2022-12-13T15:23:30.331Z,58.13
2022-12-13T15:26:32.599Z,57.33
2022-12-13T15:29:10.325Z,56.99
2022-12-13T15:31:37.490Z,56.97
2022-12-13T15:34:29.033Z,59.07
2022-12-13T15:37:01.103Z,58.32
2022-12-13T15:39:27.846Z,58.16
2022-12-13T15:41:54.959Z,58.27
2022-12-13T15:44:31.814Z,58.32
2022-12-13T15:47:11.425Z,58.77
2022-12-13T15:49:42.146Z,59.28
2022-12-13T15:52:14.743Z,58.47
2022-12-13T15:54:41.741Z,57.55
2022-12-13T15:57:15.730Z,59.53
2022-12-13T15:59:43.487Z,59.39
2022-12-13T16:02:30.255Z,58.37
2022-12-13T16:05:06.753Z,60.13
2022-12-13T16:07:35.946Z,58.21
2022-12-13T16:10:03.052Z,59.61
2022-12-13T16:12:32.722Z,58.61
2022-12-13T16:15:20.406Z,58.58
2022-12-13T16:18:19.169Z,59.68
2022-12-13T16:20:46.517Z,60.53
2022-12-13T16:23:26.831Z,59.49
2022-12-13T16:26:08.538Z,59.99
2022-12-13T16:28:35.604Z,60.90
2022-12-13T16:31:16.289Z,61.87
2022-12-13T16:33:43.163Z,61.42
2022-12-13T16:36:10.255Z,61.86
2022-12-13T16:38:39.635Z,60.97
2022-12-13T16:41:08.729Z,62.08
2022-12-13T16:43:40.697Z,61.45
2022-12-13T16:47:13.038Z,60.66
2022-12-13T16:48:54.199Z,59.88
2022-12-13T16:51:21.112Z,60.45
2022-12-13T16:53:47.906Z,61.78
2022-12-13T16:56:16.536Z,60.96
2022-12-13T16:58:49.400Z,61.89
2022-12-13T17:01:18.115Z,61.85
2022-12-13T17:03:44.736Z,62.01
2022-12-13T17:06:11.264Z,60.85
2022-12-13T17:08:37.822Z,60.11
2022-12-13T17:11:06.668Z,61.22
2022-12-13T17:13:33.449Z,61.38
2022-12-13T17:16:00.191Z,61.22
2022-12-13T17:18:27.133Z,62.54
2022-12-13T17:20:58.106Z,61.35
2022-12-13T17:23:26.162Z,60.61
2022-12-13T17:25:58.517Z,61.67
2022-12-13T17:28:25.796Z,60.70
2022-12-13T17:30:54.613Z,62.12
2022-12-13T17:33:21.688Z,61.79
2022-12-13T17:35:48.259Z,60.66
2022-12-13T17:38:14.789Z,61.95
2022-12-13T17:40:41.312Z,61.56
2022-12-13T17:43:08.321Z,61.77
2022-12-13T17:45:36.569Z,61.71
2022-12-13T17:48:03.350Z,62.28
2022-12-13T17:50:30.287Z,62.20
2022-12-13T17:53:00.236Z,60.89
2022-12-13T17:55:27.819Z,61.36
2022-12-13T17:57:59.824Z,62.53
2022-12-13T18:00:30.814Z,62.40
2022-12-13T18:02:57.694Z,61.51
2022-12-13T18:05:29.511Z,61.48
2022-12-13T18:07:56.699Z,61.11
2022-12-13T18:10:29.696Z,62.16
2022-12-13T18:12:57.591Z,63.39
2022-12-13T18:15:24.197Z,62.31
2022-12-13T18:20:37.782Z,64.41
2022-12-13T18:23:04.416Z,62.67
2022-12-13T18:25:30.996Z,61.91
2022-12-13T18:28:01.024Z,63.63
2022-12-13T18:30:28.249Z,62.90
2022-12-13T18:32:54.855Z,62.78
2022-12-13T18:35:21.359Z,63.54
2022-12-13T18:37:48.257Z,64.17
2022-12-13T18:40:14.794Z,62.19
2022-12-13T18:42:41.379Z,61.59
2022-12-13T18:45:08.156Z,62.48
2022-12-13T18:47:34.693Z,62.61
2022-12-13T18:50:01.284Z,62.37
2022-12-13T18:52:27.888Z,63.31
2022-12-13T18:54:54.912Z,62.35
2022-12-13T18:57:21.971Z,62.12
2022-12-13T18:59:54.193Z,61.46
2022-12-13T19:02:21.975Z,62.41
2022-12-13T19:04:55.098Z,61.20
2022-12-13T19:07:22.392Z,62.11
2022-12-13T19:09:54.748Z,62.00
2022-12-13T19:12:21.606Z,62.25
2022-12-13T19:14:54.731Z,62.11
2022-12-13T19:17:21.665Z,63.16
2022-12-13T19:19:48.482Z,62.82
2022-12-13T19:22:15.969Z,62.56
2022-12-13T19:24:42.666Z,61.84
2022-12-13T19:27:09.236Z,62.03
2022-12-13T19:29:35.945Z,63.34
2022-12-13T19:32:02.519Z,62.63
2022-12-13T19:34:29.078Z,62.13
2022-12-13T19:36:59.189Z,63.06
2022-12-13T19:39:32.364Z,61.90
2022-12-13T19:41:58.992Z,62.58
2022-12-13T19:44:25.593Z,60.92
2022-12-13T19:46:52.618Z,61.76
2022-12-13T19:49:19.504Z,62.84
2022-12-13T19:51:46.131Z,62.56
2022-12-13T19:54:12.658Z,62.08
2022-12-13T19:56:39.180Z,62.34
2022-12-13T19:59:05.817Z,63.79
2022-12-13T20:01:32.845Z,62.66
2022-12-13T20:03:59.407Z,62.92
2022-12-13T20:06:25.956Z,61.35
2022-12-13T20:08:52.891Z,63.63
2022-12-13T20:11:20.627Z,62.40
2022-12-13T20:13:47.762Z,62.14
2022-12-13T20:16:15.783Z,62.85
2022-12-13T20:18:42.379Z,60.90
2022-12-13T20:21:11.985Z,62.17
2022-12-13T20:23:39.851Z,62.61
2022-12-13T20:26:07.503Z,60.60
2022-12-13T20:28:34.097Z,61.87
2022-12-13T20:31:11.026Z,61.74
2022-12-13T20:33:38.432Z,61.83
2022-12-13T20:38:53.007Z,62.48
2022-12-13T20:41:19.525Z,60.40
2022-12-13T20:43:46.077Z,61.69
2022-12-13T20:46:15.390Z,60.69
2022-12-13T20:48:42.945Z,61.77
2022-12-13T20:51:09.990Z,61.98
2022-12-13T20:53:38.063Z,62.02
2022-12-13T20:56:05.326Z,62.04
2022-12-13T20:58:36.831Z,61.69
2022-12-13T21:01:07.410Z,62.06
2022-12-13T21:03:34.326Z,60.89
2022-12-13T21:06:00.919Z,61.44
2022-12-13T21:08:45.799Z,61.54
2022-12-13T21:11:24.626Z,62.19
2022-12-13T21:13:59.021Z,63.22
2022-12-13T21:16:28.690Z,62.55
2022-12-13T21:18:56.255Z,63.32
2022-12-13T21:21:23.410Z,61.96
2022-12-13T21:23:50.067Z,62.30
2022-12-13T21:26:16.898Z,62.49
2022-12-13T21:28:43.823Z,62.80
2022-12-13T21:31:12.030Z,62.60
2022-12-13T21:33:39.101Z,61.95
2022-12-13T21:36:10.032Z,62.43
2022-12-13T21:38:36.602Z,62.62
2022-12-13T21:41:03.131Z,63.17
2022-12-13T21:43:48.294Z,63.54
2022-12-13T21:46:26.015Z,62.09
2022-12-13T21:49:05.004Z,61.90
2022-12-13T21:51:34.559Z,63.20
2022-12-13T21:54:01.191Z,62.95
2022-12-13T21:56:47.580Z,62.55
2022-12-13T21:59:18.042Z,62.03
2022-12-13T22:02:04.026Z,61.38
2022-12-13T22:04:30.941Z,61.45
2022-12-13T22:06:57.504Z,61.25
2022-12-13T22:09:24.184Z,62.23
2022-12-13T22:11:50.786Z,61.70
2022-12-13T22:14:17.450Z,61.07
2022-12-13T22:16:44.293Z,61.18
2022-12-13T22:19:14.199Z,62.62
2022-12-13T22:21:40.977Z,63.53
2022-12-13T22:24:08.282Z,62.47
2022-12-13T22:26:35.878Z,60.94
2022-12-13T22:29:02.639Z,62.91
2022-12-13T22:31:29.995Z,60.98
2022-12-13T22:33:59.576Z,62.43
2022-12-13T22:36:26.204Z,63.52
2022-12-13T22:38:53.227Z,63.37
2022-12-13T22:41:19.781Z,62.14
2022-12-13T22:43:46.482Z,63.48
2022-12-13T22:46:16.597Z,62.52
2022-12-13T22:48:43.152Z,61.60
2022-12-13T22:51:12.004Z,62.23
2022-12-13T22:53:39.559Z,61.68
2022-12-13T22:56:07.256Z,62.73
2022-12-13T22:58:33.940Z,62.29
2022-12-13T23:01:30.111Z,62.65
2022-12-13T23:03:56.884Z,62.21
2022-12-13T23:06:27.437Z,62.57
2022-12-13T23:08:55.240Z,62.46
2022-12-13T23:11:40.976Z,61.90
2022-12-13T23:14:11.673Z,62.82
2022-12-13T23:16:39.221Z,62.66
2022-12-13T23:19:40.492Z,62.59
2022-12-13T23:21:57.338Z,62.72
2022-12-13T23:24:27.348Z,62.29
2022-12-13T23:26:54.071Z,62.00
2022-12-13T23:29:20.613Z,63.09
2022-12-13T23:31:48.746Z,60.63
2022-12-13T23:34:18.614Z,62.66
2022-12-13T23:36:49.756Z,63.63
2022-12-13T23:39:18.813Z,62.92
2022-12-13T23:41:45.859Z,63.21
2022-12-13T23:44:12.386Z,61.08
2022-12-13T23:46:38.911Z,60.79
2022-12-13T23:49:05.812Z,62.96
2022-12-13T23:51:32.863Z,62.24
2022-12-13T23:53:59.680Z,63.36
2022-12-13T23:56:26.244Z,62.07
2022-12-13T23:58:53.199Z,61.65
